Time;durP1;ratioP1;P1;durP2;ratioP2;P2;SDS_P1;SDS_P2;PMS_P1;PMS_P2;Temp;Humidity;BMP_temperature;BMP_pressure;BME280_temperature;BME280_humidity;BME280_pressure;Samples;Min_cycle;Max_cycle;Signal;HPM_P1;HPM_P2
2021/03/26 00:02:01;;;;;;;7.80;5.67;;;;;;;1.98;80.74;96068.78;5068735;28;20694;-68
2021/03/26 00:04:29;;;;;;;7.23;6.50;;;;;;;1.96;81.80;96073.28;5064143;28;20332;-68
2021/03/26 00:06:57;;;;;;;6.60;5.17;;;;;;;1.77;81.47;96067.88;5057783;28;20225;-68
2021/03/26 00:09:26;;;;;;;6.53;6.00;;;;;;;1.77;82.44;96074.88;5061105;28;20404;-69
2021/03/26 00:11:56;;;;;;;5.30;4.83;;;;;;;1.81;82.37;96079.69;5069521;28;20225;-69
2021/03/26 00:14:23;;;;;;;7.53;6.10;;;;;;;1.91;82.74;96080.63;5072982;28;20237;-69
2021/03/26 00:16:50;;;;;;;8.07;6.63;;;;;;;2.09;82.14;96088.75;5067898;28;20226;-68
2021/03/26 00:19:18;;;;;;;8.07;7.03;;;;;;;2.04;84.37;96084.88;5070181;28;20245;-68
2021/03/26 00:21:45;;;;;;;9.63;5.97;;;;;;;2.04;85.79;96090.09;5068545;28;20221;-67
2021/03/26 00:24:13;;;;;;;8.93;8.03;;;;;;;2.15;85.18;96082.25;5070408;28;20238;-69
2021/03/26 00:26:40;;;;;;;6.70;5.47;;;;;;;2.26;85.33;96080.44;5062821;28;20255;-69
2021/03/26 00:29:18;;;;;;;6.27;5.67;;;;;;;2.58;85.31;96073.63;5067655;28;20230;-68
2021/03/26 00:31:45;;;;;;;10.63;7.43;;;;;;;2.92;82.73;96067.25;5071361;28;20271;-69
2021/03/26 00:34:12;;;;;;;8.37;5.63;;;;;;;3.09;81.68;96058.03;5069441;28;20210;-68
2021/03/26 00:36:39;;;;;;;10.90;7.47;;;;;;;3.23;80.70;96054.31;5062828;28;20222;-69
2021/03/26 00:39:08;;;;;;;10.63;7.53;;;;;;;3.36;81.09;96044.47;5066553;28;20238;-68
2021/03/26 00:41:35;;;;;;;8.77;6.23;;;;;;;3.47;80.19;96031.34;5073255;28;20286;-68
2021/03/26 00:44:04;;;;;;;6.17;5.40;;;;;;;3.63;80.03;96031.69;5071261;28;20219;-69
2021/03/26 00:46:32;;;;;;;7.63;5.97;;;;;;;3.93;78.44;96033.44;5057630;28;20292;-69
2021/03/26 00:49:00;;;;;;;11.10;7.70;;;;;;;4.09;77.97;96027.69;5070892;28;20275;-68
2021/03/26 00:51:27;;;;;;;7.37;6.57;;;;;;;4.23;77.24;96032.53;5060696;28;20255;-68
2021/03/26 00:53:54;;;;;;;6.90;6.20;;;;;;;4.36;77.27;96039.25;5047110;28;20720;-69
2021/03/26 00:56:22;;;;;;;7.27;6.60;;;;;;;4.47;77.51;96042.56;5073565;28;20243;-68
2021/03/26 00:58:49;;;;;;;7.53;6.60;;;;;;;4.51;77.11;96037.91;5068877;28;20239;-69
2021/03/26 01:01:16;;;;;;;7.10;6.27;;;;;;;4.41;76.51;96031.84;5068745;28;20227;-68
2021/03/26 01:03:43;;;;;;;6.03;5.33;;;;;;;4.31;76.97;96044.09;5074799;28;20229;-69
2021/03/26 01:06:11;;;;;;;6.27;4.27;;;;;;;4.25;77.63;96033.22;5051822;28;20237;-68
2021/03/26 01:08:40;;;;;;;5.70;5.23;;;;;;;4.25;77.19;96038.44;5065000;28;20301;-69
2021/03/26 01:11:17;;;;;;;6.30;5.17;;;;;;;4.20;77.56;96040.59;5068024;28;20217;-68
2021/03/26 01:13:45;;;;;;;10.50;6.93;;;;;;;4.22;77.08;96050.94;5077549;28;20731;-69
2021/03/26 01:16:16;;;;;;;11.47;6.20;;;;;;;4.20;77.45;96039.78;5064996;28;20315;-69
2021/03/26 01:18:45;;;;;;;6.77;6.07;;;;;;;4.20;77.16;96039.78;5062657;28;20240;-69
2021/03/26 01:21:18;;;;;;;7.93;5.67;;;;;;;4.17;76.55;96040.88;5069352;28;20222;-69
2021/03/26 01:23:47;;;;;;;7.07;6.17;;;;;;;4.16;76.01;96039.25;5059871;28;20580;-68
2021/03/26 01:26:14;;;;;;;8.17;5.77;;;;;;;4.07;76.32;96037.44;5060113;28;20223;-69
2021/03/26 01:29:08;;;;;;;8.07;5.43;;;;;;;3.94;76.47;96042.91;5050945;28;20237;-68
2021/03/26 01:31:41;;;;;;;8.73;6.37;;;;;;;3.63;75.43;96047.34;5067271;28;20778;-69
2021/03/26 01:34:09;;;;;;;8.90;6.63;;;;;;;3.40;74.28;96043.28;5063768;28;20232;-69
2021/03/26 01:36:41;;;;;;;7.97;6.50;;;;;;;3.02;75.77;96042.13;5063490;28;20230;-69
2021/03/26 01:39:11;;;;;;;5.53;5.03;;;;;;;2.71;77.09;96048.19;5072045;28;20222;-68
2021/03/26 01:41:46;;;;;;;5.63;5.13;;;;;;;2.71;78.16;96048.19;5058841;28;20234;-68
2021/03/26 01:44:19;;;;;;;5.97;5.37;;;;;;;2.85;78.71;96040.06;5059082;28;20808;-69
2021/03/26 01:46:48;;;;;;;5.73;5.20;;;;;;;2.96;78.00;96032.19;5067262;28;20223;-68
2021/03/26 01:49:20;;;;;;;6.30;5.70;;;;;;;2.99;78.11;96031.09;5072560;28;20225;-69
2021/03/26 01:51:52;;;;;;;6.03;5.20;;;;;;;3.16;78.01;96027.06;5066244;28;20228;-69
2021/03/26 01:54:22;;;;;;;8.47;7.77;;;;;;;3.08;77.56;96019.91;5064650;28;20226;-68
2021/03/26 01:56:51;;;;;;;6.53;5.93;;;;;;;3.03;78.26;96016.88;5055331;28;20696;-68
2021/03/26 01:59:25;;;;;;;6.50;5.90;;;;;;;2.88;78.48;96016.34;5073129;28;20709;-69
2021/03/26 02:01:57;;;;;;;8.77;5.87;;;;;;;2.86;79.26;96013.06;5064124;28;20230;-68
2021/03/26 02:04:34;;;;;;;6.07;5.57;;;;;;;2.83;79.30;96005.47;5044242;28;20603;-69
2021/03/26 02:07:21;;;;;;;5.83;5.33;;;;;;;2.83;79.80;96015.91;5065863;28;20230;-69
2021/03/26 02:09:49;;;;;;;8.20;5.47;;;;;;;2.59;79.34;96023.16;5057991;28;20594;-68
2021/03/26 02:12:21;;;;;;;6.70;6.07;;;;;;;2.44;79.23;96026.06;5072494;28;20759;-69
2021/03/26 02:14:52;;;;;;;5.60;5.20;;;;;;;2.35;79.17;96018.97;5063362;28;20230;-68
2021/03/26 02:17:22;;;;;;;8.73;7.07;;;;;;;2.39;80.90;96020.41;5067380;28;20222;-68
2021/03/26 02:20:01;;;;;;;6.70;6.10;;;;;;;2.48;81.48;96014.44;5070457;28;20229;-69
2021/03/26 02:22:31;;;;;;;5.30;4.80;;;;;;;2.49;81.15;96010.88;5072102;28;20291;-69
2021/03/26 02:25:01;;;;;;;5.33;4.67;;;;;;;2.56;81.81;96013.78;5061946;28;20305;-69
2021/03/26 02:27:31;;;;;;;7.10;6.57;;;;;;;2.53;82.19;96022.69;5070803;28;20233;-69
2021/03/26 02:30:06;;;;;;;6.77;6.17;;;;;;;2.54;81.58;96026.13;5069344;28;20232;-69
2021/03/26 02:32:44;;;;;;;6.73;6.13;;;;;;;2.45;81.41;96022.50;5049481;28;20282;-68
2021/03/26 02:35:23;;;;;;;7.73;6.53;;;;;;;2.44;81.73;96020.84;5062954;28;20329;-68
2021/03/26 02:37:55;;;;;;;5.27;4.80;;;;;;;2.48;81.63;96017.06;5062673;28;20306;-69
2021/03/26 02:40:29;;;;;;;6.70;5.53;;;;;;;2.49;82.35;96013.50;5069662;28;20607;-69
2021/03/26 02:43:09;;;;;;;7.50;5.90;;;;;;;2.51;81.82;96022.00;5057431;28;20363;-69
2021/03/26 02:45:40;;;;;;;7.83;5.37;;;;;;;2.46;82.11;96026.75;5062433;28;20226;-68
2021/03/26 02:48:14;;;;;;;4.97;4.50;;;;;;;2.55;81.63;96022.56;5067140;28;20707;-69
2021/03/26 02:50:57;;;;;;;6.47;5.87;;;;;;;2.79;81.24;96030.97;5064104;28;20230;-68
2021/03/26 02:54:06;;;;;;;6.43;5.80;;;;;;;2.73;81.12;96028.03;5063552;28;20230;-68
2021/03/26 02:56:40;;;;;;;5.80;4.97;;;;;;;2.29;81.45;96042.94;5060197;28;20488;-69
2021/03/26 02:59:12;;;;;;;4.93;4.37;;;;;;;2.15;81.72;96040.59;5063965;28;20732;-68
2021/03/26 03:01:47;;;;;;;6.17;5.53;;;;;;;2.07;81.89;96043.00;5063239;28;20664;-69
2021/03/26 03:04:18;;;;;;;4.90;4.60;;;;;;;1.99;82.22;96031.41;5070088;28;20234;-68
2021/03/26 03:06:51;;;;;;;4.90;4.53;;;;;;;1.96;82.90;96026.44;5075323;28;20226;-69
2021/03/26 03:09:44;;;;;;;6.37;4.93;;;;;;;1.93;83.35;96031.91;5057527;28;20312;-68
2021/03/26 03:12:18;;;;;;;5.70;4.80;;;;;;;1.89;84.00;96035.69;5074569;28;20217;-68
2021/03/26 03:14:57;;;;;;;5.00;4.47;;;;;;;1.86;84.33;96035.94;5083190;28;20252;-68
2021/03/26 03:17:29;;;;;;;5.87;5.37;;;;;;;1.69;83.33;96039.88;5049758;28;20223;-69
2021/03/26 03:20:08;;;;;;;7.53;6.07;;;;;;;1.63;83.10;96039.50;5062497;28;20252;-69
2021/03/26 03:22:40;;;;;;;8.67;7.43;;;;;;;1.55;84.72;96036.66;5071630;28;20279;-68
2021/03/26 03:25:12;;;;;;;5.57;5.20;;;;;;;1.53;84.49;96041.16;5060540;28;20656;-68
2021/03/26 03:27:50;;;;;;;6.57;4.10;;;;;;;1.48;83.85;96051.13;5048558;28;20709;-68
2021/03/26 03:30:24;;;;;;;7.47;6.33;;;;;;;1.26;84.49;96047.53;5060919;28;20280;-68
2021/03/26 03:33:07;;;;;;;7.43;6.07;;;;;;;1.20;84.34;96037.63;5062811;28;20628;-68
2021/03/26 03:35:59;;;;;;;6.27;5.60;;;;;;;1.18;84.94;96043.88;5060531;28;20394;-69
2021/03/26 03:38:43;;;;;;;6.57;4.90;;;;;;;1.17;85.07;96043.06;5066625;28;20232;-69
2021/03/26 03:41:19;;;;;;;6.07;4.93;;;;;;;1.20;85.41;96042.00;5064401;28;20429;-68
2021/03/26 03:43:56;;;;;;;7.47;5.30;;;;;;;1.18;85.42;96029.09;5047520;28;20318;-69
2021/03/26 03:46:28;;;;;;;6.30;5.70;;;;;;;1.19;85.42;96025.59;5060568;28;20230;-68
2021/03/26 03:49:32;;;;;;;7.53;5.10;;;;;;;1.19;85.58;96028.19;5063348;28;20331;-69
2021/03/26 03:52:04;;;;;;;4.70;4.27;;;;;;;1.30;84.95;96032.56;5072888;28;20313;-69
2021/03/26 03:54:35;;;;;;;7.17;6.47;;;;;;;1.50;85.03;96038.81;5064245;28;20230;-69
2021/03/26 03:57:07;;;;;;;7.20;6.50;;;;;;;1.66;84.47;96034.09;5055683;28;20642;-67
2021/03/26 03:59:39;;;;;;;5.73;5.33;;;;;;;1.69;84.13;96028.63;5065059;28;20222;-68
2021/03/26 04:02:34;;;;;;;5.10;4.70;;;;;;;1.70;83.05;96031.09;5056653;28;20229;-68
2021/03/26 04:05:12;;;;;;;6.30;5.80;;;;;;;1.77;83.22;96034.06;5060088;28;20313;-68
2021/03/26 04:07:46;;;;;;;6.27;4.90;;;;;;;1.75;82.85;96030.75;5067637;28;20221;-69
2021/03/26 04:10:16;;;;;;;9.17;6.33;;;;;;;1.74;82.74;96036.91;5057721;28;20296;-69
2021/03/26 04:12:51;;;;;;;8.30;5.47;;;;;;;1.69;82.39;96033.84;5073387;28;20260;-69
2021/03/26 04:15:23;;;;;;;4.73;4.37;;;;;;;1.55;81.98;96036.66;5082928;28;20721;-68
2021/03/26 04:18:01;;;;;;;9.50;5.37;;;;;;;1.25;82.03;96038.09;5056492;28;20223;-68
2021/03/26 04:20:55;;;;;;;5.33;4.17;;;;;;;0.98;82.35;96040.19;5055055;28;20309;-69
2021/03/26 04:23:35;;;;;;;6.37;4.43;;;;;;;0.84;82.85;96041.25;5061482;28;20228;-69
2021/03/26 04:26:20;;;;;;;5.77;3.80;;;;;;;0.76;83.25;96043.59;5072653;28;20246;-68
2021/03/26 04:29:13;;;;;;;6.00;5.23;;;;;;;0.57;84.79;96039.75;5078893;28;20229;-69
2021/03/26 04:31:54;;;;;;;6.17;5.57;;;;;;;0.45;85.44;96045.00;5071155;28;20367;-68
2021/03/26 04:34:22;;;;;;;5.23;4.83;;;;;;;0.37;85.64;96047.38;5050869;28;20218;-68
2021/03/26 04:37:02;;;;;;;7.03;5.10;;;;;;;0.27;85.98;96048.03;5068890;28;20567;-69
2021/03/26 04:39:49;;;;;;;5.30;4.87;;;;;;;0.35;86.19;96038.84;5061483;28;20245;-68
2021/03/26 04:42:25;;;;;;;6.53;5.67;;;;;;;0.37;86.20;96036.97;5059965;28;20226;-69
2021/03/26 04:44:57;;;;;;;7.43;5.77;;;;;;;0.33;86.14;96030.34;5056838;28;20761;-68
2021/03/26 04:47:48;;;;;;;9.53;5.97;;;;;;;0.35;86.17;96038.84;5074872;28;20759;-68
2021/03/26 04:50:29;;;;;;;7.43;6.43;;;;;;;0.24;86.94;96030.06;5074546;28;20226;-68
2021/03/26 04:53:04;;;;;;;5.03;4.53;;;;;;;0.19;85.63;96029.59;5065397;28;20246;-68
2021/03/26 04:55:36;;;;;;;8.00;6.23;;;;;;;-0.07;86.10;96041.84;5076112;28;20237;-68
2021/03/26 04:58:27;;;;;;;6.23;5.63;;;;;;;-0.17;86.80;96040.00;5064599;28;20304;-67
2021/03/26 05:01:21;;;;;;;6.80;6.23;;;;;;;-0.05;86.83;96041.72;5056806;28;20698;-67
2021/03/26 05:04:05;;;;;;;5.03;4.63;;;;;;;-0.08;87.46;96036.75;5068610;28;20324;-67
2021/03/26 05:06:39;;;;;;;6.73;6.10;;;;;;;-0.12;87.48;96036.13;5059602;28;20214;-68
2021/03/26 05:09:16;;;;;;;6.23;5.63;;;;;;;-0.09;87.95;96035.09;5064576;28;20327;-67
2021/03/26 05:12:06;;;;;;;5.93;5.33;;;;;;;-0.05;88.30;96027.00;5064237;28;20222;-68
2021/03/26 05:14:38;;;;;;;6.17;5.53;;;;;;;0.01;88.00;96030.91;5061794;28;20223;-67
2021/03/26 05:17:09;;;;;;;6.17;5.67;;;;;;;0.04;88.09;96037.66;5065548;28;20219;-67
2021/03/26 05:19:45;;;;;;;5.13;4.73;;;;;;;0.08;87.73;96028.69;5059670;28;20231;-68
2021/03/26 05:22:39;;;;;;;10.67;6.03;;;;;;;0.06;87.68;96026.22;5063721;28;20264;-67
2021/03/26 05:25:35;;;;;;;6.40;5.20;;;;;;;0.12;88.33;96036.16;5029324;28;20596;-67
2021/03/26 05:28:17;;;;;;;9.20;6.43;;;;;;;0.09;87.89;96028.59;5063685;28;20597;-66
2021/03/26 05:30:47;;;;;;;6.10;5.30;;;;;;;0.12;87.28;96033.56;5064355;28;20260;-67
2021/03/26 05:33:26;;;;;;;7.00;5.20;;;;;;;0.10;86.48;96027.66;5062464;28;20216;-67
2021/03/26 05:36:01;;;;;;;7.83;4.73;;;;;;;0.11;87.17;96024.13;5060168;28;20233;-68
2021/03/26 05:39:04;;;;;;;6.17;5.57;;;;;;;0.30;86.73;96018.41;5040775;28;20264;-65
2021/03/26 05:42:11;;;;;;;8.57;5.00;;;;;;;0.43;86.90;96021.75;5055312;28;20225;-67
2021/03/26 05:45:23;;;;;;;4.50;4.20;;;;;;;0.63;87.19;96017.69;5055847;28;20221;-68
2021/03/26 05:48:36;;;;;;;6.53;5.73;;;;;;;0.73;86.23;96015.22;4969159;28;20360;-67
2021/03/26 05:51:33;;;;;;;6.40;5.80;;;;;;;0.70;85.87;96013.69;5072033;28;20232;-68
2021/03/26 05:54:14;;;;;;;3.93;3.57;;;;;;;0.78;86.23;96019.16;5066776;28;20221;-67
2021/03/26 05:57:05;;;;;;;4.20;3.83;;;;;;;0.87;84.84;96022.00;5057205;28;20724;-67
2021/03/26 05:59:48;;;;;;;8.70;5.87;;;;;;;0.88;84.32;96021.06;5056703;28;20241;-67
2021/03/26 06:03:02;;;;;;;5.50;4.30;;;;;;;0.83;84.40;96019.63;5076986;28;20249;-68
2021/03/26 06:06:29;;;;;;;6.00;4.87;;;;;;;0.81;84.79;96021.50;5049727;28;20221;-67
2021/03/26 06:10:00;;;;;;;6.00;5.47;;;;;;;0.82;84.40;96018.00;5059204;28;20351;-68
2021/03/26 06:13:32;;;;;;;6.00;4.90;;;;;;;0.85;84.17;96016.91;4979940;28;20251;-67
2021/03/26 06:16:31;;;;;;;5.33;4.83;;;;;;;1.02;84.23;96013.06;4982661;28;20224;-69
2021/03/26 06:19:40;;;;;;;7.10;6.40;;;;;;;1.15;84.11;96003.34;5058668;28;20223;-69
2021/03/26 06:22:53;;;;;;;7.77;7.03;;;;;;;1.45;84.06;96012.34;5053833;28;20234;-69
2021/03/26 06:26:05;;;;;;;6.93;5.70;;;;;;;1.54;83.27;96014.22;5054580;28;20218;-68
2021/03/26 06:28:42;;;;;;;7.27;6.17;;;;;;;1.61;83.45;96005.00;5067744;28;20494;-69
2021/03/26 06:31:49;;;;;;;6.70;5.27;;;;;;;1.71;84.70;96011.13;5064956;28;20246;-70
2021/03/26 06:35:07;;;;;;;7.27;6.50;;;;;;;1.86;84.06;96015.13;5061877;28;20598;-69
2021/03/26 06:38:19;;;;;;;8.10;7.27;;;;;;;2.10;84.22;96016.69;5059211;28;20701;-69
2021/03/26 06:40:53;;;;;;;7.43;6.20;;;;;;;2.29;83.11;96019.50;4970778;28;20292;-69
2021/03/26 06:43:42;;;;;;;5.50;5.03;;;;;;;2.41;83.21;96015.06;5045305;28;20217;-70
2021/03/26 06:46:25;;;;;;;6.40;5.80;;;;;;;2.51;82.54;96011.59;5062906;28;20303;-70
2021/03/26 06:49:04;;;;;;;5.93;5.53;;;;;;;2.64;80.89;96015.78;5061589;28;20242;-70
2021/03/26 06:51:48;;;;;;;6.30;4.93;;;;;;;2.81;80.05;96017.81;5066058;28;20304;-69
2021/03/26 06:54:36;;;;;;;6.33;4.93;;;;;;;2.93;79.86;96008.16;5057067;28;20218;-68
2021/03/26 06:57:35;;;;;;;6.17;5.57;;;;;;;3.12;78.88;96006.50;5061535;28;20425;-70
2021/03/26 07:00:24;;;;;;;5.97;5.37;;;;;;;3.26;79.56;96007.91;5065419;28;20707;-70
2021/03/26 07:03:30;;;;;;;4.90;4.23;;;;;;;3.49;79.46;96003.34;5060204;28;20233;-69
2021/03/26 07:06:18;;;;;;;6.37;5.63;;;;;;;3.68;79.00;96003.41;5058301;28;20248;-69
2021/03/26 07:08:58;;;;;;;6.20;5.67;;;;;;;3.92;78.54;95994.38;5061033;28;20725;-70
2021/03/26 07:11:49;;;;;;;5.87;5.37;;;;;;;4.13;78.05;95997.75;5055126;28;20245;-68
2021/03/26 07:14:34;;;;;;;6.53;5.33;;;;;;;4.35;77.17;95985.38;5055026;28;20220;-70
2021/03/26 07:17:49;;;;;;;7.63;6.33;;;;;;;4.61;75.76;95985.63;5064126;28;20687;-70
2021/03/26 07:20:41;;;;;;;3.97;3.23;;;;;;;4.96;72.59;95982.41;5057272;28;20718;-70
2021/03/26 07:23:46;;;;;;;3.90;3.00;;;;;;;5.28;71.70;95988.09;5057907;28;20602;-70
2021/03/26 07:26:26;;;;;;;8.00;4.57;;;;;;;5.52;69.82;95987.59;5063804;28;20227;-70
2021/03/26 07:29:27;;;;;;;4.87;3.37;;;;;;;5.78;67.55;95987.75;5076268;28;20280;-70
2021/03/26 07:32:15;;;;;;;5.90;4.20;;;;;;;5.99;68.52;95983.09;5063222;28;20217;-70
2021/03/26 07:34:58;;;;;;;4.17;3.83;;;;;;;6.19;69.35;95982.97;5068387;28;20261;-70
2021/03/26 07:37:37;;;;;;;2.80;2.57;;;;;;;6.39;68.16;95981.84;5066863;28;20217;-70
2021/03/26 07:40:31;;;;;;;4.83;3.20;;;;;;;6.53;66.42;95989.19;5064193;28;20299;-69
2021/03/26 07:43:18;;;;;;;4.73;4.33;;;;;;;6.75;67.70;95987.06;5068876;28;20222;-69
2021/03/26 07:46:02;;;;;;;2.67;2.47;;;;;;;6.89;65.97;95983.91;5069418;28;20275;-70
2021/03/26 07:48:57;;;;;;;3.40;3.10;;;;;;;6.99;66.27;95989.88;5068251;28;20225;-69
2021/03/26 07:51:31;;;;;;;5.43;3.77;;;;;;;7.23;65.90;95986.59;5064428;28;20225;-69
2021/03/26 07:54:35;;;;;;;4.33;2.97;;;;;;;7.30;64.20;95976.28;5065391;28;21091;-69
2021/03/26 07:57:16;;;;;;;3.93;3.23;;;;;;;7.54;64.36;95979.03;5064105;28;20330;-70
2021/03/26 08:00:02;;;;;;;2.63;2.43;;;;;;;7.82;63.26;95977.00;5072114;28;20234;-70
2021/03/26 08:02:46;;;;;;;3.37;3.07;;;;;;;8.15;63.19;95970.06;5073425;28;20248;-70
2021/03/26 08:05:20;;;;;;;4.40;3.80;;;;;;;8.40;58.49;95964.84;5067754;28;20276;-70
2021/03/26 08:08:20;;;;;;;3.40;3.20;;;;;;;8.66;57.76;95962.91;5069971;28;20228;-69
2021/03/26 08:10:54;;;;;;;4.80;4.17;;;;;;;8.97;58.05;95970.13;5064264;28;20239;-70
2021/03/26 08:14:03;;;;;;;6.43;3.73;;;;;;;9.28;56.56;95965.78;5073119;28;20225;-70
2021/03/26 08:16:52;;;;;;;5.43;5.00;;;;;;;9.61;56.97;95963.09;5060448;28;20232;-69
2021/03/26 08:19:27;;;;;;;10.83;8.60;;;;;;;9.88;56.24;95962.63;5063397;28;20225;-70
2021/03/26 08:22:03;;;;;;;9.40;8.40;;;;;;;10.10;55.19;95966.31;5065852;28;20832;-70
2021/03/26 08:24:44;;;;;;;7.67;7.03;;;;;;;10.34;55.04;95962.75;5062251;28;20237;-70
2021/03/26 08:27:24;;;;;;;5.80;4.90;;;;;;;10.64;54.91;95968.16;5064313;28;20237;-70
2021/03/26 08:30:02;;;;;;;6.13;5.60;;;;;;;10.85;55.43;95965.66;5065178;28;20238;-70
2021/03/26 08:32:40;;;;;;;10.53;6.63;;;;;;;11.02;55.00;95961.06;5068790;28;20244;-70
2021/03/26 08:35:55;;;;;;;13.93;7.93;;;;;;;11.14;53.59;95959.63;5060456;28;20241;-70
2021/03/26 08:38:36;;;;;;;6.13;5.53;;;;;;;11.40;54.13;95969.75;5059955;28;20442;-70
2021/03/26 08:41:11;;;;;;;11.43;6.00;;;;;;;11.71;54.11;95971.44;5069193;28;20224;-67
2021/03/26 08:43:40;;;;;;;7.73;5.83;;;;;;;11.91;52.70;95975.19;5059753;28;20225;-68
2021/03/26 08:46:17;;;;;;;14.00;7.50;;;;;;;12.08;53.97;95968.69;5063947;28;20234;-68
2021/03/26 08:48:52;;;;;;;8.10;7.30;;;;;;;12.21;52.22;95968.81;5061676;28;20220;-67
2021/03/26 08:52:01;;;;;;;7.60;6.93;;;;;;;12.51;52.38;95980.13;5057404;28;20225;-68
2021/03/26 08:54:43;;;;;;;8.30;6.27;;;;;;;12.70;52.41;95962.78;5059209;28;20225;-68
2021/03/26 08:57:18;;;;;;;8.07;7.27;;;;;;;12.92;51.75;95966.28;5063522;28;20221;-67
2021/03/26 09:00:09;;;;;;;12.43;7.97;;;;;;;13.13;49.50;95973.38;5057952;28;20713;-68
2021/03/26 09:03:10;;;;;;;8.13;7.37;;;;;;;13.24;48.28;95964.09;5068442;28;20313;-68
2021/03/26 09:06:23;;;;;;;8.07;7.23;;;;;;;13.36;48.51;95963.41;5062153;28;20677;-69
2021/03/26 09:09:15;;;;;;;7.97;7.17;;;;;;;13.61;48.00;95968.22;5052743;28;20207;-69
2021/03/26 09:12:06;;;;;;;9.63;6.27;;;;;;;13.83;47.41;95969.78;5055771;28;20218;-69
2021/03/26 09:14:55;;;;;;;11.10;9.93;;;;;;;14.14;46.42;95969.31;5066577;28;20217;-68
2021/03/26 09:17:29;;;;;;;8.47;7.70;;;;;;;14.24;45.96;95960.97;5065665;28;20240;-71
2021/03/26 09:20:01;;;;;;;7.30;6.17;;;;;;;14.44;44.78;95971.66;5063400;28;20668;-70
2021/03/26 09:22:52;;;;;;;8.00;5.80;;;;;;;14.69;43.76;95958.66;5064987;28;20236;-71
2021/03/26 09:25:31;;;;;;;6.97;6.27;;;;;;;14.73;44.58;95958.06;5023910;28;20270;-71
2021/03/26 09:28:02;;;;;;;6.87;5.30;;;;;;;14.90;44.29;95961.13;5059361;28;20484;-68
2021/03/26 09:30:35;;;;;;;8.60;7.73;;;;;;;15.10;43.85;95957.69;5067131;28;20230;-69
2021/03/26 09:33:13;;;;;;;8.20;7.50;;;;;;;15.41;43.93;95951.72;5061284;28;20288;-69
2021/03/26 09:35:46;;;;;;;7.63;7.03;;;;;;;15.93;43.63;95950.84;5064214;28;20705;-69
2021/03/26 09:38:30;;;;;;;8.27;7.00;;;;;;;16.42;40.93;95946.72;5065600;28;20225;-69
2021/03/26 09:41:11;;;;;;;7.23;6.53;;;;;;;16.45;39.68;95940.97;5048752;28;20312;-70
2021/03/26 09:43:48;;;;;;;7.20;6.57;;;;;;;16.44;39.27;95947.31;5054182;28;20754;-69
2021/03/26 09:46:21;;;;;;;6.40;5.77;;;;;;;16.48;37.52;95937.88;5060011;28;20218;-71
2021/03/26 09:49:01;;;;;;;7.10;6.40;;;;;;;16.48;38.56;95941.38;5069369;28;20230;-69
2021/03/26 09:51:37;;;;;;;9.27;7.63;;;;;;;16.80;39.01;95940.56;5064998;28;20222;-70
2021/03/26 09:54:13;;;;;;;8.93;7.97;;;;;;;17.10;37.78;95936.28;5066111;28;20252;-70
2021/03/26 09:56:47;;;;;;;8.30;7.43;;;;;;;17.07;34.78;95936.69;5063168;28;20713;-71
2021/03/26 09:59:34;;;;;;;6.57;5.83;;;;;;;17.12;34.59;95931.53;5069234;28;20229;-70
2021/03/26 10:02:18;;;;;;;6.27;5.53;;;;;;;17.38;34.82;95927.00;5061596;28;20226;-69
2021/03/26 10:04:56;;;;;;;9.67;8.00;;;;;;;17.26;34.44;95930.38;5053764;28;20227;-69
2021/03/26 10:07:33;;;;;;;6.30;5.70;;;;;;;17.28;34.31;95922.97;5062291;28;20695;-71
2021/03/26 10:13:04;;;;;;;9.77;7.03;;;;;;;17.57;34.58;95916.13;5054757;28;20234;-71
2021/03/26 10:15:35;;;;;;;8.40;7.20;;;;;;;17.85;33.99;95920.19;5068832;28;20221;-71
2021/03/26 10:18:08;;;;;;;9.40;8.60;;;;;;;17.79;33.47;95916.53;5060819;28;20633;-71
2021/03/26 10:20:44;;;;;;;6.80;6.20;;;;;;;17.83;34.19;95919.56;5062394;28;20287;-71
2021/03/26 10:23:26;;;;;;;7.17;6.60;;;;;;;18.36;34.70;95909.03;5066077;28;20742;-71
2021/03/26 10:26:03;;;;;;;5.97;5.47;;;;;;;18.73;33.15;95907.09;5055914;28;20230;-68
2021/03/26 10:29:00;;;;;;;7.80;6.93;;;;;;;19.04;31.63;95899.84;5059473;28;20225;-72
2021/03/26 10:31:33;;;;;;;7.30;6.77;;;;;;;19.11;30.84;95899.72;5063570;28;20226;-70
2021/03/26 10:34:03;;;;;;;8.07;6.70;;;;;;;19.57;31.92;95894.44;5062535;28;20260;-70
2021/03/26 10:36:42;;;;;;;6.80;5.60;;;;;;;19.70;30.32;95889.88;5062009;28;21070;-71
2021/03/26 10:39:14;;;;;;;8.23;7.23;;;;;;;19.79;30.55;95891.13;5064307;28;20257;-70
2021/03/26 10:41:54;;;;;;;6.83;6.27;;;;;;;19.95;31.45;95885.03;5059348;28;20691;-70
2021/03/26 10:44:30;;;;;;;7.80;7.07;;;;;;;20.15;30.61;95876.59;5061586;28;20221;-70
2021/03/26 10:47:08;;;;;;;8.50;7.77;;;;;;;20.32;29.83;95873.97;5059279;28;21264;-71
2021/03/26 10:49:40;;;;;;;7.43;6.53;;;;;;;20.58;30.95;95862.69;5075284;28;20230;-71
2021/03/26 10:52:16;;;;;;;7.63;6.13;;;;;;;20.76;29.67;95863.50;5059382;28;20263;-71
2021/03/26 10:54:49;;;;;;;7.37;6.63;;;;;;;20.76;30.01;95858.97;5060751;28;20337;-70
2021/03/26 10:57:31;;;;;;;14.57;6.83;;;;;;;20.92;30.22;95852.78;5060737;28;20521;-70
2021/03/26 11:00:05;;;;;;;6.90;6.30;;;;;;;21.21;29.60;95861.56;5059633;28;20553;-71
2021/03/26 11:02:55;;;;;;;6.47;5.90;;;;;;;21.38;28.06;95850.00;5064352;28;20378;-71
2021/03/26 11:05:33;;;;;;;5.97;5.37;;;;;;;21.61;29.11;95844.44;5059953;28;20853;-70
2021/03/26 11:08:17;;;;;;;7.57;6.87;;;;;;;21.77;28.02;95848.94;5056732;28;20234;-70
2021/03/26 11:10:51;;;;;;;7.37;6.43;;;;;;;21.72;28.22;95843.50;5057155;28;20226;-69
2021/03/26 11:13:25;;;;;;;7.87;7.17;;;;;;;21.99;27.67;95834.69;5062645;28;20230;-70
2021/03/26 11:15:58;;;;;;;6.67;6.03;;;;;;;21.76;27.97;95841.94;5057190;28;20280;-70
2021/03/26 11:18:30;;;;;;;6.73;6.20;;;;;;;21.79;28.39;95840.63;5063980;28;20222;-70
2021/03/26 11:21:00;;;;;;;6.43;5.80;;;;;;;22.12;28.02;95835.13;5058599;28;20237;-70
2021/03/26 11:23:31;;;;;;;5.33;4.83;;;;;;;21.20;26.44;95843.81;5062817;28;20624;-70
2021/03/26 11:26:16;;;;;;;6.77;6.13;;;;;;;21.65;28.17;95834.00;5052861;28;20234;-70
2021/03/26 11:28:46;;;;;;;6.70;5.93;;;;;;;21.87;27.07;95837.50;5058654;28;20221;-70
2021/03/26 11:31:24;;;;;;;9.70;6.57;;;;;;;21.93;27.18;95825.75;5060193;28;20341;-70
2021/03/26 11:34:00;;;;;;;7.87;6.67;;;;;;;21.74;27.29;95816.38;5059206;28;20741;-70
2021/03/26 11:37:04;;;;;;;8.60;6.53;;;;;;;21.81;27.66;95812.44;5057100;28;20283;-70
2021/03/26 11:39:37;;;;;;;6.33;5.73;;;;;;;21.75;27.60;95813.44;4968331;28;20216;-69
2021/03/26 11:42:30;;;;;;;8.13;7.17;;;;;;;21.84;27.85;95811.13;5049792;28;20241;-69
2021/03/26 11:45:02;;;;;;;8.80;7.40;;;;;;;21.90;28.78;95793.19;5059732;28;20238;-71
2021/03/26 11:47:37;;;;;;;5.77;5.27;;;;;;;21.07;27.08;95803.91;5056077;28;20229;-70
2021/03/26 11:50:17;;;;;;;6.00;5.57;;;;;;;20.37;28.05;95796.31;5040330;28;20368;-71
2021/03/26 11:53:03;;;;;;;7.03;6.43;;;;;;;20.22;28.37;95798.75;5056194;28;20218;-69
2021/03/26 11:55:36;;;;;;;5.10;4.77;;;;;;;19.99;29.81;95795.09;5052177;28;20225;-70
2021/03/26 11:58:13;;;;;;;18.90;7.07;;;;;;;19.89;29.97;95790.38;5058452;28;20230;-69
2021/03/26 12:00:50;;;;;;;9.87;5.57;;;;;;;19.73;29.65;95798.34;5057105;28;20625;-69
2021/03/26 12:03:21;;;;;;;5.53;5.03;;;;;;;19.81;29.12;95782.72;5061722;28;20222;-68
2021/03/26 12:06:05;;;;;;;6.17;5.77;;;;;;;19.92;29.89;95778.34;5050738;28;20305;-69
2021/03/26 12:08:42;;;;;;;5.57;5.03;;;;;;;20.30;29.83;95769.69;5063231;28;20218;-69
2021/03/26 12:11:16;;;;;;;5.77;5.23;;;;;;;20.91;28.88;95765.31;5054893;28;20733;-70
2021/03/26 12:13:51;;;;;;;5.63;5.20;;;;;;;21.31;29.32;95766.19;5065276;28;20296;-70
2021/03/26 12:16:21;;;;;;;4.27;3.43;;;;;;;21.43;28.92;95764.16;5069113;28;20219;-70
2021/03/26 12:18:54;;;;;;;6.20;4.93;;;;;;;21.50;27.71;95754.06;5065549;28;20658;-71
2021/03/26 12:21:40;;;;;;;6.00;5.57;;;;;;;21.56;28.41;95745.81;5074895;28;20467;-70
2021/03/26 12:24:18;;;;;;;4.50;4.20;;;;;;;21.23;28.44;95746.72;5066434;28;20733;-70
2021/03/26 12:26:57;;;;;;;6.07;5.47;;;;;;;21.08;27.02;95749.19;5071954;28;20228;-70
2021/03/26 12:29:31;;;;;;;4.93;4.53;;;;;;;20.90;26.36;95741.41;5066152;28;20222;-71
2021/03/26 12:32:06;;;;;;;5.03;4.63;;;;;;;20.55;27.13;95739.81;5066158;28;20220;-70
2021/03/26 12:34:52;;;;;;;7.87;5.80;;;;;;;20.01;28.67;95734.06;5059754;28;20240;-71
2021/03/26 12:37:25;;;;;;;4.23;3.93;;;;;;;19.69;29.61;95735.63;5063529;28;20416;-70
2021/03/26 12:40:04;;;;;;;6.00;4.97;;;;;;;20.26;28.98;95725.66;5063178;28;20230;-70
2021/03/26 12:42:39;;;;;;;9.23;5.80;;;;;;;20.62;27.10;95728.94;5066333;28;20214;-71
2021/03/26 12:45:18;;;;;;;3.40;3.10;;;;;;;20.27;26.64;95723.78;5062718;28;20222;-70